SPHI/CIX METAR and TAF weather

Enter ICAO airport designator
Station Type Date Time Source
SPHI METAR 2020/10/29 15:00 UTC NOAA

SPHI 291500Z 20009KT 170V230 9999 SCT015 21/15 Q1014 RMK BIRD HAZARD RWY 19/01 PP000


Station Type Date Time Source
SPHI Decoded METAR 2020/10/29 15:00 UTC NOAA

Chiclayo, Peru (SPHI) 06-47S 079-50W 34M
Oct 29, 2020 - 11:00 AM EDT / 2020.10.29 1500 UTC
Wind: from the SSW (200 degrees) at 10 MPH (9 KT) (direction variable):0
Visibility: greater than 7 mile(s):0
Sky conditions: partly cloudy
Temperature: 69 F (21 C)
Dew Point: 59 F (15 C)
Relative Humidity: 68%
Pressure (altimeter): 29.94 in. Hg (1014 hPa)
ob: SPHI 291500Z 20009KT 170V230 9999 SCT015 21/15 Q1014 RMK BIRD HAZARD RWY 19/01 PP000
cycle: 15

Station Type Date Time Source
SPHI TAF 2020/10/29 12:33 UTC NOAA

TAF SPHI 291100Z 2912/3012 18013KT 9999 SCT016 TX24/2919Z TN16/3011Z
TEMPO 2912/2914 BKN012
BECMG 2916/2918 19018KT SCT020
FM300400 17008KT 8000 BKN014
BECMG 3010/3012 5000 BR OVC007

Example: see airport list